• Join FlightAware (Why Join?)
  • Login
  • US Flag 
01:18AM EDT


 

Airport Tracker/Info


-or-


 

Live Flight TrackerFlight Track Log ✈ N143DE ✈ 21-Aug-2013 ✈ KCVG - KRYY

Flight Track Log - Related Links

Times and Time Zones

All times are in EDT time to prevent confusion due to time zone crossing. See the N143DE flight status page for this flight to view local times or setup timezone preferences in your user account.

Time Position Orientation Groundspeed Altitude Reporting Facility
EDT Latitude Longitude Course Direction KTS MPH feet Rate Location/Type
03:10AM 39.0167 -84.6833 180° South 148 170 3,200  Level Cincinnati TRACON
03:11AM 38.9667 -84.6500 153° Southeast 183 211 4,600 1,560 Climbing Cincinnati TRACON
03:14AM 38.8511 -84.6594 184° South 183 211 8,600 1,560 Climbing Indianapolis Center
03:15AM 38.7983 -84.6550 176° South 189 217 10,000 1,320 Climbing Indianapolis Center
03:16AM 38.7456 -84.6556 180° South 190 219 11,300 1,260 Climbing Indianapolis Center
03:17AM 38.6914 -84.6536 178° South 195 224 12,600 1,260 Climbing Indianapolis Center
03:18AM 38.6308 -84.6522 179° South 204 235 13,900 1,200 Climbing Indianapolis Center
03:19AM 38.5744 -84.6536 181° South 203 234 15,100 1,020 Climbing Indianapolis Center
03:20AM 38.5183 -84.6508 178° South 200 230 16,000 900 Climbing Indianapolis Center
03:21AM 38.4611 -84.6506 180° South 204 235 17,000 840 Climbing Indianapolis Center
03:22AM 38.4039 -84.6519 181° South 205 236 17,700 720 Climbing Indianapolis Center
03:23AM 38.3461 -84.6475 177° South 208 239 18,500 960 Climbing Indianapolis Center
03:24AM 38.2911 -84.6486 181° South 199 229 19,700 840 Climbing Indianapolis Center
03:25AM 38.2403 -84.6514 182° South 188 216 20,300 540 Climbing Indianapolis Center
03:26AM 38.1828 -84.6531 181° South 198 228 20,900 600 Climbing Indianapolis Center
03:27AM 38.1256 -84.6533 180° South 204 235 21,500 540 Climbing Indianapolis Center
03:28AM 38.0669 -84.6508 178° South 209 241 22,000 600 Climbing Indianapolis Center
03:29AM 38.0100 -84.6417 173° South 207 238 22,800 600 Climbing Indianapolis Center
03:30AM 37.9556 -84.6411 180° South 221 254 23,200 540 Climbing Indianapolis Center
03:31AM 37.9008 -84.6447 183° South 201 231 23,900 420 Climbing Indianapolis Center
03:32AM 37.8431 -84.6464 181° South 207 238 24,100 60 Climbing Indianapolis Center
03:33AM 37.7836 -84.6428 177° South 213 245 24,100  Level Indianapolis Center
03:34AM 37.7203 -84.6381 177° South 223 257 24,100 -60 Level Indianapolis Center
03:35AM 37.6544 -84.6353 178° South 233 268 24,000  Descending Indianapolis Center
03:36AM 37.5892 -84.6303 177° South 235 270 24,100 -60 Climbing Indianapolis Center
03:37AM 37.5258 -84.6311 181° South 230 265 23,900  Descending Indianapolis Center
03:38AM 37.4608 -84.6369 184° South 233 268 24,200  Climbing Indianapolis Center
03:39AM 37.3972 -84.6422 184° South 230 265 23,900 -180 Descending Indianapolis Center
03:40AM 37.3317 -84.6503 186° South 237 273 23,900  Level Indianapolis Center
03:41AM 37.2667 -84.6500 180° South 235 270 24,000  Climbing Indianapolis Center
03:42AM 37.2025 -84.6542 183° South 230 265 24,000  Level Indianapolis Center
03:43AM 37.1378 -84.6522 179° South 231 266 24,000 -60 Level Indianapolis Center
03:44AM 37.0744 -84.6503 179° South 228 262 23,900  Descending Indianapolis Center
03:45AM 37.0100 -84.6492 179° South 235 270 24,000  Climbing Indianapolis Center
03:46AM 36.9472 -84.6381 172° South 227 261 23,900  Descending Indianapolis Center
03:47AM 36.8842 -84.6456 185° South 229 264 24,000  Climbing Indianapolis Center
03:48AM 36.8189 -84.6486 182° South 232 267 24,000  Level Indianapolis Center
03:49AM 36.7544 -84.6450 177° South 232 267 24,000  Level Indianapolis Center
03:50AM 36.6897 -84.6436 179° South 232 267 24,000  Level Indianapolis Center
03:51AM 36.6253 -84.6356 174° South 232 267 24,100  Climbing Indianapolis Center
03:52AM 36.5606 -84.6378 182° South 233 268 24,100  Level Indianapolis Center
03:53AM 36.4956 -84.6403 182° South 233 268 24,100  Level Indianapolis Center
03:54AM 36.4300 -84.6350 176° South 234 269 24,100 -60 Level Indianapolis Center
03:55AM 36.3647 -84.6314 177° South 236 272 24,000 -60 Descending Indianapolis Center
03:56AM 36.2983 -84.6306 179° South 237 273 24,000  Level Indianapolis Center
03:58AM 36.1681 -84.6214 177° South 235 270 24,000 -120 Level Indianapolis Center
03:59AM 36.1022 -84.6156 176° South 237 273 23,800  Descending Indianapolis Center
04:00AM 36.0375 -84.6039 172° South 235 270 24,100 60 Climbing Indianapolis Center
04:01AM 35.9742 -84.5950 174° South 228 262 24,000  Descending Indianapolis Center
04:02AM 35.9092 -84.5964 181° South 231 266 24,100  Climbing Indianapolis Center
04:03AM 35.8456 -84.6094 189° South 230 265 24,000 -60 Descending Indianapolis Center
04:04AM 35.7819 -84.6250 191° South 230 265 24,000  Level Indianapolis Center
04:05AM 35.6981 -84.6344 185° South 234 269 24,000  Level Atlanta Center
04:06AM 35.6333 -84.6289 176° South 234 269 24,000 -60 Level Atlanta Center
04:07AM 35.5667 -84.6258 178° South 234 269 23,900  Descending Atlanta Center
04:08AM 35.5019 -84.6231 178° South 234 269 24,000  Climbing Atlanta Center
04:09AM 35.4372 -84.6225 180° South 234 269 23,900 -600 Descending Atlanta Center
04:10AM 35.3683 -84.6322 187° South 234 269 22,900 -1,080 Descending Atlanta Center
04:11AM 35.2953 -84.6317 180° South 245 282 21,800 -1,140 Descending Atlanta Center
04:12AM 35.2244 -84.6286 178° South 256 295 20,700 -1,200 Descending Atlanta Center
04:13AM 35.1514 -84.6181 173° South 256 295 19,500 -1,260 Descending Atlanta Center
04:14AM 35.0806 -84.6150 178° South 261 300 18,200 -1,140 Descending Atlanta Center
04:15AM 35.0117 -84.6194 183° South 255 293 17,300 -1,080 Descending Atlanta Center
04:16AM 34.9450 -84.6164 178° South 250 288 16,100 -1,200 Descending Atlanta Center
04:17AM 34.8781 -84.6136 178° South 250 288 15,000 -1,020 Descending Atlanta Center
04:18AM 34.8136 -84.6131 180° South 250 288 14,100 -1,080 Descending Atlanta Center
04:19AM 34.7467 -84.6125 180° South 250 288 12,900 -1,260 Descending Atlanta Center
04:20AM 34.6800 -84.6122 180° South 244 281 11,600 -960 Descending Atlanta Center
04:21AM 34.6194 -84.6067 176° South 232 267 11,000 -360 Descending Atlanta Center
04:22AM 34.5611 -84.6064 180° South 220 253 11,000 -480 Level Atlanta Center
04:23AM 34.5067 -84.6108 184° South 209 241 10,100 -1,200 Descending Atlanta Center
04:24AM 34.4442 -84.6081 178° South 209 241 8,700 -1,440 Descending Atlanta Center
04:25AM 34.3817 -84.6025 176° South 221 254 7,300 -1,440 Descending Atlanta Center
04:26AM 34.3211 -84.5947 174° South 221 254 5,900 -1,080 Descending Atlanta Center
04:27AM 34.2711 -84.5467 142° Southeast 212 244 5,200 -480 Descending Atlanta Center
04:28AM 34.2297 -84.5061 141° Southeast 199 229 5,000 -300 Descending Atlanta Center
04:29AM 34.1942 -84.4658 137° Southeast 181 208 4,600 -660 Descending Atlanta Center
04:30AM 34.1528 -84.4228 139° Southeast 192 221 3,700 -840 Descending Atlanta Center
04:31AM 34.1111 -84.3775 138° Southeast 192 221 3,000 -360 Descending Atlanta Center
04:32AM 34.0833 -84.3500 141° Southeast 175 201 3,100  Climbing Atlanta TRACON
04:33AM 34.0500 -84.3500 180° South 136 157 3,000 -60 Descending Atlanta TRACON
04:34AM 34.0167 -84.3667 203° Southwest 132 152 3,000  Level Atlanta TRACON